Time;durP1;ratioP1;P1;durP2;ratioP2;P2;SDS_P1;SDS_P2;PMS_P1;PMS_P2;Temp;Humidity;BMP_temperature;BMP_pressure;BME280_temperature;BME280_humidity;BME280_pressure;Samples;Min_cycle;Max_cycle;Signal;HPM_P1;HPM_P2
2024/03/12 00:01:22;;;;;;;;;;;;;;;;;;5013244;28;20281;-57
2024/03/12 00:03:49;;;;;;;;;;;;;;;;;;5023354;28;19923;-58
2024/03/12 00:06:15;;;;;;;;;;;;;;;;;;5022155;28;19920;-58
2024/03/12 00:08:42;;;;;;;;;;;;;;;;;;5017438;28;19957;-57
2024/03/12 00:11:09;;;;;;;;;;;;;;;;;;5016832;28;19909;-58
2024/03/12 00:13:35;;;;;;;;;;;;;;;;;;5013262;28;19924;-58
2024/03/12 00:16:01;;;;;;;;;;;;;;;;;;5018156;28;20321;-58
2024/03/12 00:18:27;;;;;;;;;;;;;;;;;;5017747;28;19982;-58
2024/03/12 00:20:53;;;;;;;;;;;;;;;;;;5023845;28;20358;-58
2024/03/12 00:23:19;;;;;;;;;;;;;;;;;;5019701;28;19912;-58
2024/03/12 00:25:45;;;;;;;;;;;;;;;;;;5021080;28;19912;-57
2024/03/12 00:28:11;;;;;;;;;;;;;;;;;;5013619;28;19953;-58
2024/03/12 00:30:40;;;;;;;;;;;;;;;;;;5015631;28;19984;-57
2024/03/12 00:33:07;;;;;;;;;;;;;;;;;;5020977;28;20380;-56
2024/03/12 00:35:35;;;;;;;;;;;;;;;;;;5015833;28;19913;-58
2024/03/12 00:38:01;;;;;;;;;;;;;;;;;;5021461;28;19925;-57
2024/03/12 00:40:33;;;;;;;;;;;;;;;;;;5017951;28;19971;-57
2024/03/12 00:42:59;;;;;;;;;;;;;;;;;;5017002;28;20279;-58
2024/03/12 00:45:25;;;;;;;;;;;;;;;;;;5020376;28;19972;-58
2024/03/12 00:47:54;;;;;;;;;;;;;;;;;;5022486;28;20338;-58
2024/03/12 00:50:22;;;;;;;;;;;;;;;;;;5015030;28;20553;-57
2024/03/12 00:52:52;;;;;;;;;;;;;;;;;;5018777;28;20345;-57
2024/03/12 00:55:20;;;;;;;;;;;;;;;;;;5019271;28;19925;-58
2024/03/12 00:57:48;;;;;;;;;;;;;;;;;;5014592;28;19910;-58
2024/03/12 01:00:17;;;;;;;;;;;;;;;;;;5018842;28;19916;-56
2024/03/12 01:02:44;;;;;;;;;;;;;;;;;;5019019;28;19920;-58
2024/03/12 01:05:12;;;;;;;;;;;;;;;;;;5032008;28;20015;-57
2024/03/12 01:07:38;;;;;;;;;;;;;;;;;;5014077;28;19909;-58
2024/03/12 01:10:05;;;;;;;;;;;;;;;;;;5019409;28;20321;-58
2024/03/12 01:12:32;;;;;;;;;;;;;;;;;;5019592;28;19956;-58
2024/03/12 01:14:58;;;;;;;;;;;;;;;;;;5019135;28;19913;-58
2024/03/12 01:17:24;;;;;;;;;;;;;;;;;;5024308;28;19952;-57
2024/03/12 01:19:50;;;;;;;;;;;;;;;;;;5020070;28;20376;-57
2024/03/12 01:22:16;;;;;;;;;;;;;;;;;;5021941;28;19960;-56
2024/03/12 01:24:42;;;;;;;;;;;;;;;;;;5015170;28;19964;-57
2024/03/12 01:27:10;;;;;;;;;;;;;;;;;;5023031;28;19960;-57
2024/03/12 01:29:37;;;;;;;;;;;;;;;;;;5023612;28;20440;-56
2024/03/12 01:32:06;;;;;;;;;;;;;;;;;;5022366;28;20011;-57
2024/03/12 01:34:33;;;;;;;;;;;;;;;;;;5018623;28;20336;-57
2024/03/12 01:36:59;;;;;;;;;;;;;;;;;;5017022;28;19913;-57
2024/03/12 01:39:26;;;;;;;;;;;;;;;;;;5019095;28;20429;-57
2024/03/12 01:41:51;;;;;;;;;;;;;;;;;;5018253;28;19917;-57
2024/03/12 01:44:17;;;;;;;;;;;;;;;;;;5020791;28;20400;-57
2024/03/12 01:46:43;;;;;;;;;;;;;;;;;;5020690;28;19948;-56
2024/03/12 01:49:09;;;;;;;;;;;;;;;;;;5020759;28;20342;-56
2024/03/12 01:51:35;;;;;;;;;;;;;;;;;;5023715;28;19952;-56
2024/03/12 01:54:03;;;;;;;;;;;;;;;;;;5020107;28;19964;-56
2024/03/12 01:56:29;;;;;;;;;;;;;;;;;;5019101;28;19909;-55
2024/03/12 01:58:57;;;;;;;;;;;;;;;;;;5018550;28;20016;-55
2024/03/12 02:01:23;;;;;;;;;;;;;;;;;;5015405;28;19913;-57
2024/03/12 02:03:52;;;;;;;;;;;;;;;;;;5025180;28;19909;-56
2024/03/12 02:06:19;;;;;;;;;;;;;;;;;;5017265;28;19913;-56
2024/03/12 02:08:45;;;;;;;;;;;;;;;;;;5019813;28;20350;-57
2024/03/12 02:11:11;;;;;;;;;;;;;;;;;;5018546;28;19944;-56
2024/03/12 02:13:37;;;;;;;;;;;;;;;;;;5021644;28;19924;-56
2024/03/12 02:16:03;;;;;;;;;;;;;;;;;;5032097;28;19935;-57
2024/03/12 02:18:29;;;;;;;;;;;;;;;;;;5021292;28;20291;-58
2024/03/12 02:20:55;;;;;;;;;;;;;;;;;;5013635;28;19992;-57
2024/03/12 02:23:21;;;;;;;;;;;;;;;;;;5016159;28;19976;-56
2024/03/12 02:25:47;;;;;;;;;;;;;;;;;;5015768;28;19945;-57
2024/03/12 02:28:13;;;;;;;;;;;;;;;;;;5014345;28;19994;-53
2024/03/12 02:30:39;;;;;;;;;;;;;;;;;;5018534;28;20006;-53
2024/03/12 02:33:05;;;;;;;;;;;;;;;;;;5019924;28;20345;-54
2024/03/12 02:35:34;;;;;;;;;;;;;;;;;;5019217;28;19967;-54
2024/03/12 02:38:00;;;;;;;;;;;;;;;;;;5013485;28;19931;-53
2024/03/12 02:40:26;;;;;;;;;;;;;;;;;;5014479;28;19913;-54
2024/03/12 02:42:53;;;;;;;;;;;;;;;;;;5011446;28;19960;-53
2024/03/12 02:45:20;;;;;;;;;;;;;;;;;;5020548;28;19924;-53
2024/03/12 02:47:47;;;;;;;;;;;;;;;;;;5015575;28;19910;-53
2024/03/12 02:50:13;;;;;;;;;;;;;;;;;;5018537;28;19909;-53
2024/03/12 02:52:41;;;;;;;;;;;;;;;;;;5014273;28;20011;-53
2024/03/12 02:55:07;;;;;;;;;;;;;;;;;;5018803;28;19913;-55
2024/03/12 02:57:33;;;;;;;;;;;;;;;;;;5015698;28;19962;-54
2024/03/12 02:59:59;;;;;;;;;;;;;;;;;;5024104;28;19948;-53
2024/03/12 03:02:25;;;;;;;;;;;;;;;;;;5021245;28;19909;-53
2024/03/12 03:04:51;;;;;;;;;;;;;;;;;;5020082;28;20062;-53
2024/03/12 03:07:17;;;;;;;;;;;;;;;;;;5014968;28;19964;-54
2024/03/12 03:09:44;;;;;;;;;;;;;;;;;;5016774;28;19909;-54
2024/03/12 03:12:11;;;;;;;;;;;;;;;;;;5019381;28;20314;-54
2024/03/12 03:14:37;;;;;;;;;;;;;;;;;;5020417;28;19917;-54
2024/03/12 03:17:04;;;;;;;;;;;;;;;;;;5024708;28;19912;-54
2024/03/12 03:19:30;;;;;;;;;;;;;;;;;;5016781;28;19941;-53
2024/03/12 03:21:56;;;;;;;;;;;;;;;;;;5008492;28;19967;-53
2024/03/12 03:24:22;;;;;;;;;;;;;;;;;;5012527;28;19964;-55
2024/03/12 03:26:48;;;;;;;;;;;;;;;;;;5015468;28;19956;-53
2024/03/12 03:29:14;;;;;;;;;;;;;;;;;;5020482;28;20372;-53
2024/03/12 03:31:41;;;;;;;;;;;;;;;;;;5015996;28;20376;-54
2024/03/12 03:34:10;;;;;;;;;;;;;;;;;;5017151;28;19928;-53
2024/03/12 03:36:36;;;;;;;;;;;;;;;;;;5021953;28;20332;-53
2024/03/12 03:39:03;;;;;;;;;;;;;;;;;;5024815;28;19995;-52
2024/03/12 03:41:29;;;;;;;;;;;;;;;;;;5017471;28;20058;-53
2024/03/12 03:43:55;;;;;;;;;;;;;;;;;;5025695;28;20341;-52
2024/03/12 03:46:21;;;;;;;;;;;;;;;;;;5018141;28;19920;-53
2024/03/12 03:48:47;;;;;;;;;;;;;;;;;;5016847;28;20273;-56
2024/03/12 03:51:14;;;;;;;;;;;;;;;;;;5013415;28;19964;-52
2024/03/12 03:53:40;;;;;;;;;;;;;;;;;;5015646;28;19917;-53
2024/03/12 03:56:15;;;;;;;;;;;;;;;;;;5012859;28;19959;-53
2024/03/12 03:58:43;;;;;;;;;;;;;;;;;;5015014;28;19919;-53
2024/03/12 04:01:08;;;;;;;;;;;;;;;;;;5016441;28;20281;-51
2024/03/12 04:03:36;;;;;;;;;;;;;;;;;;5010925;28;19952;-52
2024/03/12 04:06:02;;;;;;;;;;;;;;;;;;5023674;28;20357;-54
2024/03/12 04:08:30;;;;;;;;;;;;;;;;;;5020677;28;20028;-54
2024/03/12 04:10:56;;;;;;;;;;;;;;;;;;5008446;28;19910;-53
2024/03/12 04:13:22;;;;;;;;;;;;;;;;;;5016327;28;19920;-53
2024/03/12 04:15:48;;;;;;;;;;;;;;;;;;5017387;28;20025;-53
2024/03/12 04:18:18;;;;;;;;;;;;;;;;;;5026286;28;19910;-52
2024/03/12 04:20:44;;;;;;;;;;;;;;;;;;5018833;28;19978;-53
2024/03/12 04:23:10;;;;;;;;;;;;;;;;;;5017489;28;19936;-53
2024/03/12 04:25:36;;;;;;;;;;;;;;;;;;5009384;28;19945;-51
2024/03/12 04:28:02;;;;;;;;;;;;;;;;;;5016356;28;20408;-52
2024/03/12 04:30:28;;;;;;;;;;;;;;;;;;5019384;28;20000;-51
2024/03/12 04:32:54;;;;;;;;;;;;;;;;;;5022997;28;19982;-53
2024/03/12 04:35:20;;;;;;;;;;;;;;;;;;5023009;28;20318;-52
2024/03/12 04:37:46;;;;;;;;;;;;;;;;;;5017670;28;19940;-52
2024/03/12 04:40:12;;;;;;;;;;;;;;;;;;5018967;28;19956;-52
2024/03/12 04:42:38;;;;;;;;;;;;;;;;;;5017340;28;20334;-53
2024/03/12 04:45:04;;;;;;;;;;;;;;;;;;5015396;28;19913;-54
2024/03/12 04:47:31;;;;;;;;;;;;;;;;;;5027131;28;20423;-52
2024/03/12 04:49:57;;;;;;;;;;;;;;;;;;5030190;28;19909;-53
2024/03/12 04:52:23;;;;;;;;;;;;;;;;;;5019373;28;19908;-54
2024/03/12 04:54:49;;;;;;;;;;;;;;;;;;5027471;28;20027;-55
2024/03/12 04:57:15;;;;;;;;;;;;;;;;;;5018233;28;19953;-54
2024/03/12 04:59:41;;;;;;;;;;;;;;;;;;5019654;28;20404;-54
2024/03/12 05:02:07;;;;;;;;;;;;;;;;;;5021537;28;19971;-54
2024/03/12 05:04:32;;;;;;;;;;;;;;;;;;5012249;28;19982;-53
2024/03/12 05:06:58;;;;;;;;;;;;;;;;;;5024077;28;19963;-53
2024/03/12 05:09:24;;;;;;;;;;;;;;;;;;5015557;28;19992;-53
2024/03/12 05:11:50;;;;;;;;;;;;;;;;;;5015630;28;19949;-53
2024/03/12 05:14:16;;;;;;;;;;;;;;;;;;5020298;28;19960;-55
2024/03/12 05:16:42;;;;;;;;;;;;;;;;;;5018314;28;19917;-54
2024/03/12 05:19:10;;;;;;;;;;;;;;;;;;5026966;28;20470;-54
2024/03/12 05:21:36;;;;;;;;;;;;;;;;;;5017084;28;20337;-54
2024/03/12 05:24:03;;;;;;;;;;;;;;;;;;5021719;28;19928;-55
2024/03/12 05:26:29;;;;;;;;;;;;;;;;;;5015536;28;19927;-53
2024/03/12 05:28:57;;;;;;;;;;;;;;;;;;5025303;28;19997;-54
2024/03/12 05:31:34;;;;;;;;;;;;;;;;;;5019293;28;20277;-56
2024/03/12 05:34:00;;;;;;;;;;;;;;;;;;5026286;28;19925;-53
2024/03/12 05:36:29;;;;;;;;;;;;;;;;;;5031108;28;19913;-54
2024/03/12 05:39:03;;;;;;;;;;;;;;;;;;5019734;28;19913;-54
2024/03/12 05:41:40;;;;;;;;;;;;;;;;;;5016451;28;20019;-54
2024/03/12 05:49:36;;;;;;;;;;;;;;;;;;5018270;28;20380;-53
2024/03/12 05:52:02;;;;;;;;;;;;;;;;;;5023049;28;19956;-54
2024/03/12 05:54:29;;;;;;;;;;;;;;;;;;5026245;28;19964;-54
2024/03/12 05:56:55;;;;;;;;;;;;;;;;;;5016391;28;19956;-53
2024/03/12 05:59:22;;;;;;;;;;;;;;;;;;5020253;28;19917;-57
2024/03/12 06:01:52;;;;;;;;;;;;;;;;;;5024843;28;19908;-53
2024/03/12 06:04:18;;;;;;;;;;;;;;;;;;5021989;28;20261;-54
2024/03/12 06:06:44;;;;;;;;;;;;;;;;;;5022866;28;19945;-53
2024/03/12 06:09:10;;;;;;;;;;;;;;;;;;5019724;28;19960;-54
2024/03/12 06:11:36;;;;;;;;;;;;;;;;;;5018528;28;19957;-53
2024/03/12 06:14:05;;;;;;;;;;;;;;;;;;5017830;28;20391;-53
2024/03/12 06:16:32;;;;;;;;;;;;;;;;;;5020972;28;19913;-53
2024/03/12 06:18:58;;;;;;;;;;;;;;;;;;5017743;28;19917;-53
2024/03/12 06:21:23;;;;;;;;;;;;;;;;;;5021217;28;19956;-53
2024/03/12 06:23:49;;;;;;;;;;;;;;;;;;5013637;28;19956;-53
2024/03/12 06:26:15;;;;;;;;;;;;;;;;;;5017220;28;20039;-56
2024/03/12 06:28:41;;;;;;;;;;;;;;;;;;5019416;28;19909;-53
2024/03/12 06:31:08;;;;;;;;;;;;;;;;;;5019435;28;20076;-53
2024/03/12 06:33:34;;;;;;;;;;;;;;;;;;5016788;28;20366;-55
2024/03/12 06:36:01;;;;;;;;;;;;;;;;;;5011519;28;19928;-55
2024/03/12 06:38:27;;;;;;;;;;;;;;;;;;5015581;28;19941;-57
2024/03/12 06:40:53;;;;;;;;;;;;;;;;;;5015207;28;20400;-55
2024/03/12 06:43:21;;;;;;;;;;;;;;;;;;5015551;28;19961;-54
2024/03/12 06:45:46;;;;;;;;;;;;;;;;;;5009607;28;20371;-54
2024/03/12 06:48:13;;;;;;;;;;;;;;;;;;5018684;28;20004;-55
2024/03/12 06:50:39;;;;;;;;;;;;;;;;;;5015613;28;19952;-55
2024/03/12 06:53:05;;;;;;;;;;;;;;;;;;5017541;28;19952;-54
2024/03/12 06:55:32;;;;;;;;;;;;;;;;;;5015860;28;20329;-55
2024/03/12 06:58:11;;;;;;;;;;;;;;;;;;5022224;28;19963;-55
2024/03/12 07:00:37;;;;;;;;;;;;;;;;;;5014213;28;20313;-55
2024/03/12 07:03:03;;;;;;;;;;;;;;;;;;5028849;28;19909;-54
2024/03/12 07:05:30;;;;;;;;;;;;;;;;;;5029124;28;19927;-55
2024/03/12 07:07:56;;;;;;;;;;;;;;;;;;5017017;28;20301;-54
2024/03/12 07:10:25;;;;;;;;;;;;;;;;;;5013775;28;19975;-58
2024/03/12 07:12:51;;;;;;;;;;;;;;;;;;5010480;28;20655;-59
2024/03/12 07:15:18;;;;;;;;;;;;;;;;;;5019438;28;19912;-58
2024/03/12 07:17:44;;;;;;;;;;;;;;;;;;5018790;28;20349;-58
2024/03/12 07:20:15;;;;;;;;;;;;;;;;;;5017433;28;19956;-58
2024/03/12 07:22:42;;;;;;;;;;;;;;;;;;5025888;28;20384;-58
2024/03/12 07:25:10;;;;;;;;;;;;;;;;;;5020405;28;20504;-58
2024/03/12 07:27:36;;;;;;;;;;;;;;;;;;5021630;28;19917;-58
2024/03/12 07:30:03;;;;;;;;;;;;;;;;;;5030789;28;19975;-58
2024/03/12 07:32:30;;;;;;;;;;;;;;;;;;5013533;28;20396;-58
2024/03/12 07:34:56;;;;;;;;;;;;;;;;;;5024748;28;19912;-58
2024/03/12 07:37:22;;;;;;;;;;;;;;;;;;5019697;28;20405;-58
2024/03/12 07:39:48;;;;;;;;;;;;;;;;;;5010689;28;20383;-58
2024/03/12 07:42:19;;;;;;;;;;;;;;;;;;5016409;28;19952;-58
2024/03/12 07:44:47;;;;;;;;;;;;;;;;;;5016796;28;19909;-58
2024/03/12 07:47:13;;;;;;;;;;;;;;;;;;5017583;28;19960;-58
2024/03/12 07:49:39;;;;;;;;;;;;;;;;;;5009984;28;20308;-59
2024/03/12 07:52:05;;;;;;;;;;;;;;;;;;5024143;28;19909;-60
2024/03/12 07:54:31;;;;;;;;;;;;;;;;;;5025186;28;20447;-61
2024/03/12 07:56:59;;;;;;;;;;;;;;;;;;5017794;28;19941;-60
2024/03/12 07:59:26;;;;;;;;;;;;;;;;;;5014878;28;19910;-60
2024/03/12 08:01:57;;;;;;;;;;;;;;;;;;5012254;28;20397;-59
2024/03/12 08:04:25;;;;;;;;;;;;;;;;;;5011755;28;19960;-60
2024/03/12 08:06:51;;;;;;;;;;;;;;;;;;5019192;28;19932;-61
2024/03/12 08:09:18;;;;;;;;;;;;;;;;;;5021234;28;20373;-60
2024/03/12 08:11:44;;;;;;;;;;;;;;;;;;5017685;28;19979;-58
2024/03/12 08:14:10;;;;;;;;;;;;;;;;;;5014125;28;19967;-59
2024/03/12 08:16:36;;;;;;;;;;;;;;;;;;5021152;28;20160;-59
2024/03/12 08:19:02;;;;;;;;;;;;;;;;;;5011519;28;19929;-58
2024/03/12 08:21:28;;;;;;;;;;;;;;;;;;5014647;28;19956;-53
2024/03/12 08:23:54;;;;;;;;;;;;;;;;;;5008374;28;19936;-53
2024/03/12 08:26:20;;;;;;;;;;;;;;;;;;5011664;28;19921;-53
2024/03/12 08:28:46;;;;;;;;;;;;;;;;;;5021978;28;19939;-53
2024/03/12 08:31:15;;;;;;;;;;;;;;;;;;5014545;28;19991;-54
2024/03/12 08:33:41;;;;;;;;;;;;;;;;;;5010541;28;19917;-54
2024/03/12 08:36:07;;;;;;;;;;;;;;;;;;5009399;28;19913;-53
2024/03/12 08:38:34;;;;;;;;;;;;;;;;;;5013164;28;20289;-54
2024/03/12 08:41:00;;;;;;;;;;;;;;;;;;5023103;28;20341;-53
2024/03/12 08:43:27;;;;;;;;;;;;;;;;;;5015706;28;19909;-55
2024/03/12 08:45:53;;;;;;;;;;;;;;;;;;5018719;28;20004;-56
2024/03/12 08:48:19;;;;;;;;;;;;;;;;;;5011228;28;20000;-53
2024/03/12 08:50:44;;;;;;;;;;;;;;;;;;5028278;28;20343;-53
2024/03/12 08:53:11;;;;;;;;;;;;;;;;;;5021358;28;19944;-53
2024/03/12 08:55:37;;;;;;;;;;;;;;;;;;5017303;28;19909;-56
2024/03/12 08:58:04;;;;;;;;;;;;;;;;;;5022490;28;19916;-54
2024/03/12 09:00:30;;;;;;;;;;;;;;;;;;5025717;28;20353;-54
2024/03/12 09:02:56;;;;;;;;;;;;;;;;;;5024676;28;20135;-52
2024/03/12 09:05:23;;;;;;;;;;;;;;;;;;5015877;28;20008;-55
2024/03/12 09:07:48;;;;;;;;;;;;;;;;;;5022359;28;20034;-54
2024/03/12 09:10:15;;;;;;;;;;;;;;;;;;5022372;28;20020;-53
2024/03/12 09:12:41;;;;;;;;;;;;;;;;;;5013014;28;19913;-54
2024/03/12 09:15:08;;;;;;;;;;;;;;;;;;5013305;28;19960;-54
2024/03/12 09:17:34;;;;;;;;;;;;;;;;;;5013595;28;19913;-53
2024/03/12 09:20:00;;;;;;;;;;;;;;;;;;5010085;28;19949;-56
2024/03/12 09:22:28;;;;;;;;;;;;;;;;;;5019229;28;20381;-52
2024/03/12 09:24:54;;;;;;;;;;;;;;;;;;5024339;28;20313;-53
2024/03/12 09:27:20;;;;;;;;;;;;;;;;;;5013772;28;19931;-54
2024/03/12 09:29:46;;;;;;;;;;;;;;;;;;5016976;28;20012;-54
2024/03/12 09:32:12;;;;;;;;;;;;;;;;;;5028454;28;19952;-54
2024/03/12 09:34:40;;;;;;;;;;;;;;;;;;5015088;28;19944;-55
2024/03/12 09:37:06;;;;;;;;;;;;;;;;;;5025663;28;19967;-54
2024/03/12 09:39:32;;;;;;;;;;;;;;;;;;5027844;28;19919;-55
2024/03/12 09:41:58;;;;;;;;;;;;;;;;;;5027355;28;19913;-54
2024/03/12 09:44:25;;;;;;;;;;;;;;;;;;5030108;28;19909;-56
2024/03/12 09:46:51;;;;;;;;;;;;;;;;;;5029688;28;19920;-54
2024/03/12 09:49:20;;;;;;;;;;;;;;;;;;5030766;28;19909;-55
2024/03/12 09:51:46;;;;;;;;;;;;;;;;;;5015395;28;19911;-55
2024/03/12 09:54:12;;;;;;;;;;;;;;;;;;5012371;28;20015;-54
2024/03/12 09:56:38;;;;;;;;;;;;;;;;;;5021129;28;20418;-55
2024/03/12 09:59:07;;;;;;;;;;;;;;;;;;5010413;28;19920;-57
2024/03/12 10:01:33;;;;;;;;;;;;;;;;;;5024564;28;19909;-58
2024/03/12 10:03:59;;;;;;;;;;;;;;;;;;5021411;28;20376;-55
2024/03/12 10:06:26;;;;;;;;;;;;;;;;;;5017817;28;20363;-55
2024/03/12 10:08:52;;;;;;;;;;;;;;;;;;5027321;28;19909;-54
2024/03/12 10:11:19;;;;;;;;;;;;;;;;;;5025738;28;19905;-57
2024/03/12 10:13:46;;;;;;;;;;;;;;;;;;5017396;28;20328;-58
2024/03/12 10:16:11;;;;;;;;;;;;;;;;;;5024993;28;19952;-57
2024/03/12 10:18:38;;;;;;;;;;;;;;;;;;5017592;28;19952;-56
2024/03/12 10:21:06;;;;;;;;;;;;;;;;;;5018462;28;19990;-55
2024/03/12 10:23:41;;;;;;;;;;;;;;;;;;5016831;28;20278;-54
2024/03/12 10:26:16;;;;;;;;;;;;;;;;;;5016552;28;20292;-56
2024/03/12 10:28:43;;;;;;;;;;;;;;;;;;5022391;28;20318;-56
2024/03/12 10:31:09;;;;;;;;;;;;;;;;;;5027497;28;20428;-56
2024/03/12 10:33:36;;;;;;;;;;;;;;;;;;5020322;28;19968;-57
2024/03/12 10:36:02;;;;;;;;;;;;;;;;;;5020342;28;19921;-57
2024/03/12 10:38:28;;;;;;;;;;;;;;;;;;5018498;28;19921;-55
2024/03/12 10:40:55;;;;;;;;;;;;;;;;;;5016169;28;20035;-57
2024/03/12 10:43:23;;;;;;;;;;;;;;;;;;5019042;28;19937;-57
2024/03/12 10:45:49;;;;;;;;;;;;;;;;;;5020325;28;19953;-55
2024/03/12 10:48:15;;;;;;;;;;;;;;;;;;5018505;28;20468;-53
2024/03/12 10:50:42;;;;;;;;;;;;;;;;;;5015350;28;20078;-53
2024/03/12 10:53:08;;;;;;;;;;;;;;;;;;5024780;28;20010;-54
2024/03/12 10:55:34;;;;;;;;;;;;;;;;;;5022274;28;19984;-53
2024/03/12 10:58:04;;;;;;;;;;;;;;;;;;5018233;28;19909;-53
2024/03/12 11:00:30;;;;;;;;;;;;;;;;;;5027331;28;19913;-53
2024/03/12 11:02:56;;;;;;;;;;;;;;;;;;5017791;28;20357;-53
2024/03/12 11:05:22;;;;;;;;;;;;;;;;;;5010677;28;19952;-55
2024/03/12 11:07:48;;;;;;;;;;;;;;;;;;5026943;28;19948;-53
2024/03/12 11:10:14;;;;;;;;;;;;;;;;;;5025724;28;19947;-53
2024/03/12 11:12:42;;;;;;;;;;;;;;;;;;5019828;28;19979;-53
2024/03/12 11:15:09;;;;;;;;;;;;;;;;;;5010267;28;20321;-56
2024/03/12 11:17:37;;;;;;;;;;;;;;;;;;5021558;28;20416;-56
2024/03/12 11:20:05;;;;;;;;;;;;;;;;;;5012287;28;20038;-56
2024/03/12 11:22:32;;;;;;;;;;;;;;;;;;5014684;28;19971;-56
2024/03/12 11:24:58;;;;;;;;;;;;;;;;;;5011384;28;19978;-56
2024/03/12 11:27:25;;;;;;;;;;;;;;;;;;5016514;28;19920;-57
2024/03/12 11:29:51;;;;;;;;;;;;;;;;;;5026130;28;19909;-56
2024/03/12 11:32:17;;;;;;;;;;;;;;;;;;5018319;28;19910;-56
2024/03/12 11:34:43;;;;;;;;;;;;;;;;;;5011706;28;19963;-55
2024/03/12 11:37:09;;;;;;;;;;;;;;;;;;5009782;28;19979;-56
2024/03/12 11:39:35;;;;;;;;;;;;;;;;;;5008574;28;20603;-57
2024/03/12 11:42:01;;;;;;;;;;;;;;;;;;5018517;28;20408;-57
2024/03/12 11:44:27;;;;;;;;;;;;;;;;;;5011108;28;19960;-56
2024/03/12 11:46:52;;;;;;;;;;;;;;;;;;5020024;28;19960;-52
2024/03/12 11:49:18;;;;;;;;;;;;;;;;;;5010039;28;19992;-52
2024/03/12 11:51:44;;;;;;;;;;;;;;;;;;5013681;28;19952;-54
2024/03/12 11:54:11;;;;;;;;;;;;;;;;;;5023203;28;19987;-55
2024/03/12 11:56:37;;;;;;;;;;;;;;;;;;5014142;28;20346;-53
2024/03/12 11:59:05;;;;;;;;;;;;;;;;;;5009945;28;19960;-54
2024/03/12 12:01:32;;;;;;;;;;;;;;;;;;5014015;28;19920;-54
2024/03/12 12:03:59;;;;;;;;;;;;;;;;;;5011199;28;19913;-51
2024/03/12 12:06:25;;;;;;;;;;;;;;;;;;5014453;28;20495;-52
2024/03/12 12:08:50;;;;;;;;;;;;;;;;;;5022506;28;20028;-53
2024/03/12 12:11:16;;;;;;;;;;;;;;;;;;5023325;28;19948;-53
2024/03/12 12:13:43;;;;;;;;;;;;;;;;;;5019873;28;20013;-52
2024/03/12 12:16:14;;;;;;;;;;;;;;;;;;5024725;28;19921;-54
2024/03/12 12:18:40;;;;;;;;;;;;;;;;;;5015793;28;19920;-54
2024/03/12 12:21:06;;;;;;;;;;;;;;;;;;5015298;28;20040;-56
2024/03/12 12:23:35;;;;;;;;;;;;;;;;;;5018174;28;19995;-56
2024/03/12 12:26:01;;;;;;;;;;;;;;;;;;5015154;28;19920;-56
2024/03/12 12:28:26;;;;;;;;;;;;;;;;;;5024927;28;19913;-55
2024/03/12 12:30:52;;;;;;;;;;;;;;;;;;5025011;28;19943;-55
2024/03/12 12:33:19;;;;;;;;;;;;;;;;;;5011912;28;19948;-54
2024/03/12 12:35:45;;;;;;;;;;;;;;;;;;5025547;28;20329;-56
2024/03/12 12:38:10;;;;;;;;;;;;;;;;;;5027563;28;19905;-55
2024/03/12 12:40:36;;;;;;;;;;;;;;;;;;5013132;28;20314;-56
2024/03/12 12:43:05;;;;;;;;;;;;;;;;;;5017832;28;19968;-56
2024/03/12 12:45:31;;;;;;;;;;;;;;;;;;5012604;28;19919;-54
2024/03/12 12:47:58;;;;;;;;;;;;;;;;;;5018566;28;20340;-53
2024/03/12 12:50:24;;;;;;;;;;;;;;;;;;5012353;28;20272;-53
2024/03/12 12:52:50;;;;;;;;;;;;;;;;;;5020091;28;20013;-52
2024/03/12 12:55:16;;;;;;;;;;;;;;;;;;5024028;28;19952;-53
2024/03/12 12:57:42;;;;;;;;;;;;;;;;;;5017024;28;19960;-54
2024/03/12 13:00:15;;;;;;;;;;;;;;;;;;5015550;28;20057;-54
2024/03/12 13:02:41;;;;;;;;;;;;;;;;;;5021947;28;19909;-57
2024/03/12 13:05:07;;;;;;;;;;;;;;;;;;5015044;28;19961;-58
2024/03/12 13:07:33;;;;;;;;;;;;;;;;;;5023797;28;19964;-59
2024/03/12 13:09:59;;;;;;;;;;;;;;;;;;5024070;28;19913;-56
2024/03/12 13:12:25;;;;;;;;;;;;;;;;;;5017329;28;19952;-58
2024/03/12 13:14:52;;;;;;;;;;;;;;;;;;5030376;28;20396;-59
2024/03/12 13:17:18;;;;;;;;;;;;;;;;;;5024068;28;20606;-58
2024/03/12 13:19:44;;;;;;;;;;;;;;;;;;5011088;28;19963;-58
2024/03/12 13:22:11;;;;;;;;;;;;;;;;;;5013167;28;20330;-59
2024/03/12 13:24:38;;;;;;;;;;;;;;;;;;5018546;28;19913;-57
2024/03/12 13:27:05;;;;;;;;;;;;;;;;;;5017265;28;19947;-58
2024/03/12 13:29:31;;;;;;;;;;;;;;;;;;5010730;28;19955;-58
2024/03/12 13:31:57;;;;;;;;;;;;;;;;;;5016923;28;20370;-59
2024/03/12 13:34:23;;;;;;;;;;;;;;;;;;5017718;28;20096;-58
2024/03/12 13:36:48;;;;;;;;;;;;;;;;;;5019704;28;19956;-58
2024/03/12 13:39:15;;;;;;;;;;;;;;;;;;5018488;28;19909;-58
2024/03/12 13:41:41;;;;;;;;;;;;;;;;;;5012424;28;19932;-58
2024/03/12 13:44:07;;;;;;;;;;;;;;;;;;5016224;28;19956;-58
2024/03/12 13:46:33;;;;;;;;;;;;;;;;;;5015941;28;19992;-58
2024/03/12 13:48:59;;;;;;;;;;;;;;;;;;5011267;28;20376;-58
2024/03/12 13:51:25;;;;;;;;;;;;;;;;;;5017773;28;20345;-57
2024/03/12 13:53:52;;;;;;;;;;;;;;;;;;5019549;28;19913;-59
2024/03/12 13:56:18;;;;;;;;;;;;;;;;;;5021880;28;19918;-58
2024/03/12 13:58:45;;;;;;;;;;;;;;;;;;5020673;28;20011;-58
2024/03/12 14:01:11;;;;;;;;;;;;;;;;;;5018545;28;20309;-58
2024/03/12 14:03:39;;;;;;;;;;;;;;;;;;5018874;28;19919;-58
2024/03/12 14:06:08;;;;;;;;;;;;;;;;;;5013973;28;19913;-59
2024/03/12 14:08:34;;;;;;;;;;;;;;;;;;5017999;28;19987;-58
2024/03/12 14:11:01;;;;;;;;;;;;;;;;;;5017251;28;20484;-58
2024/03/12 14:13:27;;;;;;;;;;;;;;;;;;5015209;28;20393;-58
2024/03/12 14:15:53;;;;;;;;;;;;;;;;;;5019790;28;19967;-58
2024/03/12 14:18:23;;;;;;;;;;;;;;;;;;5019247;28;19983;-59
2024/03/12 14:20:50;;;;;;;;;;;;;;;;;;5012957;28;19921;-58
2024/03/12 14:23:16;;;;;;;;;;;;;;;;;;5019827;28;19916;-59
2024/03/12 14:25:42;;;;;;;;;;;;;;;;;;5015448;28;20035;-58
2024/03/12 14:28:09;;;;;;;;;;;;;;;;;;5017449;28;20036;-58
2024/03/12 14:30:37;;;;;;;;;;;;;;;;;;5021327;28;19920;-58
2024/03/12 14:33:03;;;;;;;;;;;;;;;;;;5022484;28;20015;-57
2024/03/12 14:35:29;;;;;;;;;;;;;;;;;;5017073;28;20373;-58
2024/03/12 14:37:57;;;;;;;;;;;;;;;;;;5016443;28;19988;-58
2024/03/12 14:40:23;;;;;;;;;;;;;;;;;;5019160;28;19961;-56
2024/03/12 14:42:49;;;;;;;;;;;;;;;;;;5010581;28;20008;-58
2024/03/12 14:45:15;;;;;;;;;;;;;;;;;;5014015;28;19948;-58
2024/03/12 14:47:41;;;;;;;;;;;;;;;;;;5019858;28;19929;-57
2024/03/12 14:50:08;;;;;;;;;;;;;;;;;;5015304;28;19920;-59
2024/03/12 14:52:34;;;;;;;;;;;;;;;;;;5019158;28;20056;-58
2024/03/12 14:55:00;;;;;;;;;;;;;;;;;;5013204;28;20031;-58
2024/03/12 14:57:26;;;;;;;;;;;;;;;;;;5013929;28;19960;-56
2024/03/12 14:59:52;;;;;;;;;;;;;;;;;;5016566;28;19949;-56
2024/03/12 15:02:18;;;;;;;;;;;;;;;;;;5017152;28;19944;-58
2024/03/12 15:04:46;;;;;;;;;;;;;;;;;;5013219;28;20280;-58
2024/03/12 15:07:13;;;;;;;;;;;;;;;;;;5011617;28;20122;-58
2024/03/12 15:09:40;;;;;;;;;;;;;;;;;;5021528;28;20388;-58
2024/03/12 15:12:08;;;;;;;;;;;;;;;;;;5013733;28;19913;-58
2024/03/12 15:14:36;;;;;;;;;;;;;;;;;;5020916;28;19917;-57
2024/03/12 15:17:02;;;;;;;;;;;;;;;;;;5019630;28;19913;-58
2024/03/12 15:19:28;;;;;;;;;;;;;;;;;;5020884;28;19948;-57
2024/03/12 15:21:54;;;;;;;;;;;;;;;;;;5016200;28;20333;-57
2024/03/12 15:24:20;;;;;;;;;;;;;;;;;;5015236;28;19913;-53
2024/03/12 15:26:48;;;;;;;;;;;;;;;;;;5023864;28;20372;-52
2024/03/12 15:29:14;;;;;;;;;;;;;;;;;;5020956;28;20583;-53
2024/03/12 15:31:40;;;;;;;;;;;;;;;;;;5017513;28;20011;-51
2024/03/12 15:34:08;;;;;;;;;;;;;;;;;;5018561;28;20356;-53
2024/03/12 15:36:34;;;;;;;;;;;;;;;;;;5017484;28;19935;-55
2024/03/12 15:39:00;;;;;;;;;;;;;;;;;;5014054;28;19996;-53
2024/03/12 15:41:26;;;;;;;;;;;;;;;;;;5021488;28;19991;-53
2024/03/12 15:43:54;;;;;;;;;;;;;;;;;;5019921;28;19953;-51
2024/03/12 15:46:20;;;;;;;;;;;;;;;;;;5014681;28;20020;-54
2024/03/12 15:48:46;;;;;;;;;;;;;;;;;;5019964;28;20007;-51
2024/03/12 15:51:13;;;;;;;;;;;;;;;;;;5021158;28;20400;-52
2024/03/12 15:53:42;;;;;;;;;;;;;;;;;;5013825;28;20020;-53
2024/03/12 15:56:08;;;;;;;;;;;;;;;;;;5028366;28;19916;-52
2024/03/12 15:58:34;;;;;;;;;;;;;;;;;;5016719;28;19960;-52
2024/03/12 16:01:00;;;;;;;;;;;;;;;;;;5018125;28;19959;-53
2024/03/12 16:03:25;;;;;;;;;;;;;;;;;;5024645;28;19990;-53
2024/03/12 16:05:51;;;;;;;;;;;;;;;;;;5012755;28;20334;-54
2024/03/12 16:08:17;;;;;;;;;;;;;;;;;;5018691;28;19979;-51
2024/03/12 16:10:43;;;;;;;;;;;;;;;;;;5014690;28;20317;-54
2024/03/12 16:13:10;;;;;;;;;;;;;;;;;;5012238;28;20095;-51
2024/03/12 16:15:35;;;;;;;;;;;;;;;;;;5021425;28;19954;-54
2024/03/12 16:18:02;;;;;;;;;;;;;;;;;;5018849;28;19952;-52
2024/03/12 16:20:28;;;;;;;;;;;;;;;;;;5015434;28;20392;-51
2024/03/12 16:22:54;;;;;;;;;;;;;;;;;;5015279;28;19951;-52
2024/03/12 16:25:20;;;;;;;;;;;;;;;;;;5012365;28;19960;-54
2024/03/12 16:27:46;;;;;;;;;;;;;;;;;;5017926;28;19960;-52
2024/03/12 16:30:12;;;;;;;;;;;;;;;;;;5010203;28;19909;-52
2024/03/12 16:32:39;;;;;;;;;;;;;;;;;;5009522;28;20035;-58
2024/03/12 16:35:07;;;;;;;;;;;;;;;;;;5016901;28;20481;-58
2024/03/12 16:37:34;;;;;;;;;;;;;;;;;;5011892;28;20345;-58
2024/03/12 16:40:00;;;;;;;;;;;;;;;;;;5012896;28;19913;-57
2024/03/12 16:42:26;;;;;;;;;;;;;;;;;;5015754;28;19949;-60
2024/03/12 16:44:52;;;;;;;;;;;;;;;;;;5018941;28;19936;-57
2024/03/12 16:47:18;;;;;;;;;;;;;;;;;;5018283;28;20016;-57